createdAt,value
2022-09-15T00:00:13.144Z,974.97
2022-09-15T00:01:13.122Z,974.99
2022-09-15T00:02:13.242Z,975.01
2022-09-15T00:03:13.180Z,975.03
2022-09-15T00:04:13.134Z,975.05
2022-09-15T00:05:13.088Z,975.06
2022-09-15T00:06:13.089Z,975.05
2022-09-15T00:07:13.084Z,975.04
2022-09-15T00:08:13.063Z,975.01
2022-09-15T00:09:13.054Z,975.00
2022-09-15T00:10:13.103Z,975.00
2022-09-15T00:11:13.026Z,975.00
2022-09-15T00:12:13.014Z,975.00
2022-09-15T00:13:13.002Z,975.01
2022-09-15T00:14:13.017Z,975.01
2022-09-15T00:15:12.985Z,975.02
2022-09-15T00:16:15.251Z,975.03
2022-09-15T00:17:12.983Z,975.04
2022-09-15T00:18:12.964Z,975.03
2022-09-15T00:19:12.958Z,975.03
2022-09-15T00:20:12.957Z,975.02
2022-09-15T00:21:12.915Z,975.01
2022-09-15T00:22:12.917Z,975.01
2022-09-15T00:23:12.895Z,975.00
2022-09-15T00:24:12.909Z,975.00
2022-09-15T00:25:12.876Z,974.99
2022-09-15T00:26:19.400Z,974.99
2022-09-15T00:27:12.848Z,974.99
2022-09-15T00:28:12.842Z,974.99
2022-09-15T00:29:12.839Z,974.99
2022-09-15T00:30:12.813Z,974.99
2022-09-15T00:31:12.889Z,975.00
2022-09-15T00:32:12.828Z,975.01
2022-09-15T00:33:12.789Z,975.02
2022-09-15T00:34:12.779Z,975.03
2022-09-15T00:35:12.768Z,975.05
2022-09-15T00:36:12.786Z,975.06
2022-09-15T00:37:12.744Z,975.08
2022-09-15T00:38:12.744Z,975.09
2022-09-15T00:39:12.739Z,975.10
2022-09-15T00:40:12.799Z,975.11
2022-09-15T00:41:12.708Z,975.12
2022-09-15T00:42:12.732Z,975.14
2022-09-15T00:43:12.689Z,975.16
2022-09-15T00:44:12.679Z,975.18
2022-09-15T00:45:12.660Z,975.21
2022-09-15T00:46:12.715Z,975.23
2022-09-15T00:47:19.723Z,975.25
2022-09-15T00:48:12.661Z,975.26
2022-09-15T00:49:12.619Z,975.26
2022-09-15T00:50:12.615Z,975.24
2022-09-15T00:51:12.601Z,975.23
2022-09-15T00:52:12.621Z,975.23
2022-09-15T00:53:12.576Z,975.22
2022-09-15T00:54:12.565Z,975.22
2022-09-15T00:55:12.568Z,975.20
2022-09-15T00:56:12.560Z,975.18
2022-09-15T00:57:12.539Z,975.17
2022-09-15T00:58:12.548Z,975.16
2022-09-15T00:59:12.514Z,975.14
2022-09-15T01:00:12.522Z,975.14
2022-09-15T01:01:12.539Z,975.12
2022-09-15T01:02:12.520Z,975.11
2022-09-15T01:03:12.503Z,975.12
2022-09-15T01:04:12.457Z,975.12
2022-09-15T01:05:12.445Z,975.13
2022-09-15T01:06:12.437Z,975.13
2022-09-15T01:07:12.474Z,975.14
2022-09-15T01:08:12.423Z,975.15
2022-09-15T01:09:12.405Z,975.15
2022-09-15T01:10:12.435Z,975.16
2022-09-15T01:11:12.384Z,975.16
2022-09-15T01:12:12.404Z,975.16
2022-09-15T01:13:12.383Z,975.16
2022-09-15T01:14:12.376Z,975.15
2022-09-15T01:15:12.349Z,975.14
2022-09-15T01:16:12.419Z,975.14
2022-09-15T01:17:12.357Z,975.14
2022-09-15T01:18:12.312Z,975.15
2022-09-15T01:19:12.345Z,975.15
2022-09-15T01:20:12.320Z,975.16
2022-09-15T01:21:12.274Z,975.16
2022-09-15T01:22:12.291Z,975.16
2022-09-15T01:23:12.262Z,975.16
2022-09-15T01:24:12.279Z,975.16
2022-09-15T01:25:12.234Z,975.15
2022-09-15T01:26:12.242Z,975.14
2022-09-15T01:27:37.622Z,975.13
2022-09-15T01:28:12.221Z,975.13
2022-09-15T01:29:12.229Z,975.12
2022-09-15T01:30:12.185Z,975.12
2022-09-15T01:31:12.203Z,975.12
2022-09-15T01:32:12.176Z,975.11
2022-09-15T01:33:12.152Z,975.10
2022-09-15T01:34:12.142Z,975.10
2022-09-15T01:35:12.144Z,975.10
2022-09-15T01:36:12.130Z,975.10
2022-09-15T01:37:12.108Z,975.09
2022-09-15T01:38:12.132Z,975.09
2022-09-15T01:39:12.116Z,975.08
2022-09-15T01:40:12.138Z,975.09
2022-09-15T01:41:12.072Z,975.08
2022-09-15T01:42:12.056Z,975.07
2022-09-15T01:43:12.051Z,975.06
2022-09-15T01:44:12.062Z,975.05
2022-09-15T01:45:12.020Z,975.05
2022-09-15T01:46:12.120Z,975.04
2022-09-15T01:47:12.000Z,975.04
2022-09-15T01:48:11.998Z,975.05
2022-09-15T01:49:11.988Z,975.05
2022-09-15T01:50:11.971Z,975.06
2022-09-15T01:51:11.984Z,975.06
2022-09-15T01:52:11.976Z,975.06
2022-09-15T01:53:11.944Z,975.05
2022-09-15T01:54:11.937Z,975.03
2022-09-15T01:55:11.917Z,975.01
2022-09-15T01:56:11.914Z,974.99
2022-09-15T01:57:11.900Z,974.98
2022-09-15T01:58:11.919Z,974.96
2022-09-15T01:59:11.873Z,974.95
2022-09-15T02:00:11.868Z,974.94
2022-09-15T02:01:11.900Z,974.95
2022-09-15T02:02:11.881Z,974.96
2022-09-15T02:03:11.837Z,974.96
2022-09-15T02:04:11.864Z,974.95
2022-09-15T02:05:11.816Z,974.95
2022-09-15T02:06:11.795Z,974.92
2022-09-15T02:07:11.800Z,974.90
2022-09-15T02:08:11.783Z,974.88
2022-09-15T02:09:11.771Z,974.88
2022-09-15T02:10:11.782Z,974.87
2022-09-15T02:11:11.757Z,974.83
2022-09-15T02:12:11.763Z,974.79
2022-09-15T02:13:11.739Z,974.78
2022-09-15T02:14:11.742Z,974.77
2022-09-15T02:15:11.721Z,974.76
2022-09-15T02:16:11.709Z,974.75
2022-09-15T02:17:11.711Z,974.75
2022-09-15T02:18:11.684Z,974.74
2022-09-15T02:19:11.696Z,974.71
2022-09-15T02:20:11.689Z,974.66
2022-09-15T02:21:11.643Z,974.66
2022-09-15T02:22:11.668Z,974.68
2022-09-15T02:23:11.627Z,974.70
2022-09-15T02:24:11.628Z,974.70
2022-09-15T02:25:11.645Z,974.69
2022-09-15T02:26:11.593Z,974.67
2022-09-15T02:27:11.587Z,974.68
2022-09-15T02:28:11.573Z,974.69
2022-09-15T02:29:11.574Z,974.70
2022-09-15T02:30:11.592Z,974.71
2022-09-15T02:31:11.640Z,974.73
2022-09-15T02:32:11.568Z,974.75
2022-09-15T02:33:11.564Z,974.76
2022-09-15T02:34:11.532Z,974.77
2022-09-15T02:35:11.510Z,974.77
2022-09-15T02:36:11.553Z,974.77
2022-09-15T02:37:11.474Z,974.76
2022-09-15T02:38:11.467Z,974.75
2022-09-15T02:39:11.475Z,974.75
2022-09-15T02:40:11.565Z,974.74
2022-09-15T02:41:11.434Z,974.74
2022-09-15T02:42:11.442Z,974.74
2022-09-15T02:43:11.436Z,974.74
2022-09-15T02:44:11.404Z,974.73
2022-09-15T02:45:11.409Z,974.73
2022-09-15T02:46:11.439Z,974.73
2022-09-15T02:47:11.390Z,974.73
2022-09-15T02:48:11.364Z,974.72
2022-09-15T02:49:11.354Z,974.73
2022-09-15T02:50:11.355Z,974.73
2022-09-15T02:51:11.380Z,974.73
2022-09-15T02:52:11.330Z,974.76
2022-09-15T02:53:11.313Z,974.76
2022-09-15T02:54:11.292Z,974.76
2022-09-15T02:55:11.308Z,974.77
2022-09-15T02:56:11.292Z,974.77
2022-09-15T02:57:11.288Z,974.78
2022-09-15T02:58:11.258Z,974.77
2022-09-15T02:59:11.276Z,974.77
2022-09-15T03:00:11.242Z,974.78
2022-09-15T03:01:11.283Z,974.79
2022-09-15T03:02:11.309Z,974.80
2022-09-15T03:03:11.234Z,974.80
2022-09-15T03:04:11.217Z,974.81
2022-09-15T03:05:11.182Z,974.84
2022-09-15T03:06:11.176Z,974.86
2022-09-15T03:07:11.177Z,974.87
2022-09-15T03:08:11.177Z,974.90
2022-09-15T03:09:11.146Z,974.91
2022-09-15T03:10:11.123Z,974.91
2022-09-15T03:11:11.147Z,974.92
2022-09-15T03:12:11.164Z,974.94
2022-09-15T03:13:11.101Z,974.95
2022-09-15T03:14:11.140Z,974.97
2022-09-15T03:15:11.099Z,974.98
2022-09-15T03:16:11.133Z,974.97
2022-09-15T03:17:11.074Z,974.96
2022-09-15T03:18:11.112Z,974.95
2022-09-15T03:19:11.080Z,974.95
2022-09-15T03:20:11.063Z,974.95
2022-09-15T03:21:11.047Z,974.96
2022-09-15T03:22:11.011Z,974.96
2022-09-15T03:23:11.014Z,974.97
2022-09-15T03:24:11.045Z,974.98
2022-09-15T03:25:11.042Z,975.01
2022-09-15T03:26:11.004Z,975.02
2022-09-15T03:27:11.002Z,975.02
2022-09-15T03:28:10.934Z,975.02
2022-09-15T03:29:11.027Z,975.02
2022-09-15T03:30:10.932Z,975.01
2022-09-15T03:31:11.016Z,975.01
2022-09-15T03:32:10.923Z,975.00
2022-09-15T03:33:10.911Z,974.99
2022-09-15T03:34:10.903Z,974.99
2022-09-15T03:35:10.918Z,974.99
2022-09-15T03:36:10.862Z,974.98
2022-09-15T03:37:10.874Z,974.97
2022-09-15T03:38:10.888Z,974.96
2022-09-15T03:39:10.833Z,974.95
2022-09-15T03:40:10.969Z,974.95
2022-09-15T03:41:10.823Z,974.98
2022-09-15T03:42:10.807Z,975.01
2022-09-15T03:43:14.281Z,974.99
2022-09-15T03:44:10.800Z,975.00
2022-09-15T03:45:10.756Z,975.00
2022-09-15T03:46:10.783Z,975.00
2022-09-15T03:47:10.737Z,974.98
2022-09-15T03:48:10.733Z,975.01
2022-09-15T03:49:10.757Z,975.01
2022-09-15T03:50:10.709Z,974.99
2022-09-15T03:51:10.703Z,975.00
2022-09-15T03:52:10.690Z,974.97
2022-09-15T03:53:10.677Z,974.97
2022-09-15T03:54:10.748Z,975.00
2022-09-15T03:55:10.671Z,975.00
2022-09-15T03:56:10.673Z,975.01
2022-09-15T03:57:10.641Z,975.02
2022-09-15T03:58:10.658Z,975.01
2022-09-15T03:59:10.625Z,975.01
2022-09-15T04:00:10.675Z,975.03
2022-09-15T04:01:10.797Z,975.04
2022-09-15T04:02:10.746Z,975.04
2022-09-15T04:03:10.617Z,975.05
2022-09-15T04:04:10.593Z,975.06
2022-09-15T04:05:10.607Z,975.06
2022-09-15T04:06:10.617Z,975.06
2022-09-15T04:07:10.543Z,975.07
2022-09-15T04:08:10.553Z,975.09
2022-09-15T04:09:10.534Z,975.12
2022-09-15T04:10:10.551Z,975.13
2022-09-15T04:11:10.510Z,975.15
2022-09-15T04:12:10.518Z,975.15
2022-09-15T04:13:10.552Z,975.14
2022-09-15T04:14:10.457Z,975.15
2022-09-15T04:15:10.472Z,975.17
2022-09-15T04:16:10.566Z,975.19
2022-09-15T04:17:10.509Z,975.19
2022-09-15T04:18:10.435Z,975.19
2022-09-15T04:19:10.420Z,975.19
2022-09-15T04:20:10.397Z,975.17
2022-09-15T04:21:10.404Z,975.17
2022-09-15T04:22:14.264Z,975.17
2022-09-15T04:23:10.408Z,975.16
2022-09-15T04:24:10.399Z,975.15
2022-09-15T04:25:10.347Z,975.14
2022-09-15T04:26:10.335Z,975.14
2022-09-15T04:27:10.327Z,975.15
2022-09-15T04:28:10.313Z,975.14
2022-09-15T04:29:10.344Z,975.14
2022-09-15T04:30:10.286Z,975.13
2022-09-15T04:31:10.379Z,975.13
2022-09-15T04:32:10.263Z,975.14
2022-09-15T04:33:10.260Z,975.14
2022-09-15T04:34:10.251Z,975.16
2022-09-15T04:35:10.282Z,975.18
2022-09-15T04:36:10.171Z,975.18
2022-09-15T04:37:10.165Z,975.16
2022-09-15T04:38:10.150Z,975.15
2022-09-15T04:39:10.179Z,975.15
2022-09-15T04:40:10.208Z,975.16
2022-09-15T04:41:10.139Z,975.16
2022-09-15T04:42:10.109Z,975.16
2022-09-15T04:43:10.098Z,975.16
2022-09-15T04:44:10.096Z,975.17
2022-09-15T04:45:10.073Z,975.17
2022-09-15T04:46:10.130Z,975.18
2022-09-15T04:47:10.108Z,975.19
2022-09-15T04:48:10.043Z,975.18
2022-09-15T04:49:10.105Z,975.19
2022-09-15T04:50:10.015Z,975.20
2022-09-15T04:51:10.004Z,975.21
2022-09-15T04:52:10.001Z,975.21
2022-09-15T04:53:10.016Z,975.22
2022-09-15T04:54:09.977Z,975.22
2022-09-15T04:55:09.972Z,975.21
2022-09-15T04:56:09.957Z,975.21
2022-09-15T04:57:09.955Z,975.20
2022-09-15T04:58:09.936Z,975.19
2022-09-15T04:59:09.958Z,975.19
2022-09-15T05:00:09.925Z,975.18
2022-09-15T05:01:10.017Z,975.17
2022-09-15T05:02:09.921Z,975.17
2022-09-15T05:03:09.884Z,975.18
2022-09-15T05:04:09.925Z,975.20
2022-09-15T05:05:09.883Z,975.22
2022-09-15T05:06:09.865Z,975.26
2022-09-15T05:07:09.846Z,975.30
2022-09-15T05:08:09.834Z,975.31
2022-09-15T05:09:10.629Z,975.31
2022-09-15T05:10:09.836Z,975.32
2022-09-15T05:11:09.802Z,975.33
2022-09-15T05:12:09.787Z,975.34
2022-09-15T05:13:09.806Z,975.35
2022-09-15T05:14:09.766Z,975.37
2022-09-15T05:15:09.755Z,975.38
2022-09-15T05:16:09.810Z,975.38
2022-09-15T05:17:09.739Z,975.40
2022-09-15T05:18:09.741Z,975.42
2022-09-15T05:19:09.707Z,975.42
2022-09-15T05:20:09.693Z,975.43
2022-09-15T05:21:09.690Z,975.43
2022-09-15T05:22:09.712Z,975.43
2022-09-15T05:23:09.677Z,975.44
2022-09-15T05:24:09.657Z,975.45
2022-09-15T05:25:09.680Z,975.45
2022-09-15T05:26:09.636Z,975.45
2022-09-15T05:27:09.634Z,975.46
2022-09-15T05:28:09.642Z,975.47
2022-09-15T05:29:09.623Z,975.49
2022-09-15T05:30:35.864Z,975.49
2022-09-15T05:31:09.700Z,975.50
2022-09-15T05:32:09.610Z,975.51
2022-09-15T05:33:09.582Z,975.51
2022-09-15T05:34:09.594Z,975.51
2022-09-15T05:35:09.545Z,975.53
2022-09-15T05:36:09.555Z,975.52
2022-09-15T05:37:09.523Z,975.52
2022-09-15T05:38:09.509Z,975.53
2022-09-15T05:39:09.501Z,975.54
2022-09-15T05:40:09.536Z,975.55
2022-09-15T05:41:09.494Z,975.56
2022-09-15T05:42:09.472Z,975.56
2022-09-15T05:43:09.488Z,975.57
2022-09-15T05:44:09.451Z,975.58
2022-09-15T05:45:09.442Z,975.59
2022-09-15T05:46:09.518Z,975.60
2022-09-15T05:47:09.437Z,975.60
2022-09-15T05:48:09.420Z,975.60
2022-09-15T05:49:09.391Z,975.61
2022-09-15T05:50:09.384Z,975.62
2022-09-15T05:51:09.405Z,975.63
2022-09-15T05:52:09.389Z,975.64
2022-09-15T05:53:09.353Z,975.65
2022-09-15T05:54:09.352Z,975.65
2022-09-15T05:55:09.346Z,975.67
2022-09-15T05:56:09.344Z,975.68
2022-09-15T05:57:09.309Z,975.67
2022-09-15T05:58:09.357Z,975.67
2022-09-15T05:59:09.289Z,975.68
2022-09-15T06:00:09.275Z,975.70
2022-09-15T06:01:09.271Z,975.68
2022-09-15T06:02:09.422Z,975.70
2022-09-15T06:03:09.346Z,975.71
2022-09-15T06:04:09.289Z,975.72
2022-09-15T06:05:09.226Z,975.72
2022-09-15T06:06:09.211Z,975.72
2022-09-15T06:07:09.223Z,975.72
2022-09-15T06:08:09.197Z,975.73
2022-09-15T06:09:09.199Z,975.74
2022-09-15T06:10:09.199Z,975.73
2022-09-15T06:11:09.168Z,975.75
2022-09-15T06:12:09.153Z,975.76
2022-09-15T06:13:09.139Z,975.75
2022-09-15T06:14:09.150Z,975.74
2022-09-15T06:15:09.151Z,975.73
2022-09-15T06:16:09.151Z,975.74
2022-09-15T06:17:09.103Z,975.75
2022-09-15T06:18:09.106Z,975.73
2022-09-15T06:19:09.114Z,975.72
2022-09-15T06:20:09.075Z,975.71
2022-09-15T06:21:09.081Z,975.71
2022-09-15T06:22:09.043Z,975.70
2022-09-15T06:23:09.032Z,975.72
2022-09-15T06:24:09.043Z,975.72
2022-09-15T06:25:09.014Z,975.73
2022-09-15T06:26:09.023Z,975.74
2022-09-15T06:27:09.020Z,975.74
2022-09-15T06:28:08.981Z,975.74
2022-09-15T06:29:08.964Z,975.73
2022-09-15T06:30:08.967Z,975.72
2022-09-15T06:31:08.955Z,975.74
2022-09-15T06:32:08.990Z,975.73
2022-09-15T06:33:08.967Z,975.74
2022-09-15T06:34:08.917Z,975.76
2022-09-15T06:35:08.905Z,975.76
2022-09-15T06:36:08.899Z,975.76
2022-09-15T06:37:08.883Z,975.77
2022-09-15T06:38:08.924Z,975.79
2022-09-15T06:39:08.864Z,975.78
2022-09-15T06:40:09.059Z,975.79
2022-09-15T06:41:08.841Z,975.81
2022-09-15T06:42:10.333Z,975.82
2022-09-15T06:43:08.823Z,975.82
2022-09-15T06:44:08.843Z,975.82
2022-09-15T06:45:08.799Z,975.82
2022-09-15T06:46:08.833Z,975.83
2022-09-15T06:47:08.816Z,975.82
2022-09-15T06:48:23.959Z,975.80
2022-09-15T06:49:08.786Z,975.79
2022-09-15T06:50:08.772Z,975.79
2022-09-15T06:51:08.735Z,975.78
2022-09-15T06:52:08.725Z,975.76
2022-09-15T06:53:08.715Z,975.73
2022-09-15T06:54:08.742Z,975.72
2022-09-15T06:55:08.720Z,975.72
2022-09-15T06:56:08.693Z,975.71
2022-09-15T06:57:08.674Z,975.71
2022-09-15T06:58:08.672Z,975.72
2022-09-15T06:59:08.656Z,975.77
2022-09-15T07:00:08.673Z,975.82
2022-09-15T07:01:08.637Z,975.82
2022-09-15T07:02:08.811Z,975.82
2022-09-15T07:03:08.780Z,975.82
2022-09-15T07:04:08.637Z,975.83
2022-09-15T07:05:08.594Z,975.87
2022-09-15T07:06:08.580Z,975.90
2022-09-15T07:07:08.621Z,975.90
2022-09-15T07:08:08.561Z,975.88
2022-09-15T07:09:08.544Z,975.88
2022-09-15T07:10:08.553Z,975.89
2022-09-15T07:11:08.531Z,975.91
2022-09-15T07:12:08.533Z,975.90
2022-09-15T07:13:08.515Z,975.89
2022-09-15T07:14:08.495Z,975.89
2022-09-15T07:15:08.555Z,975.89
2022-09-15T07:16:08.504Z,975.89
2022-09-15T07:17:08.474Z,975.88
2022-09-15T07:18:08.455Z,975.88
2022-09-15T07:19:08.440Z,975.89
2022-09-15T07:20:08.496Z,975.92
2022-09-15T07:21:08.418Z,975.95
2022-09-15T07:22:08.450Z,975.96
2022-09-15T07:23:08.403Z,975.96
2022-09-15T07:24:08.392Z,975.97
2022-09-15T07:25:08.440Z,975.98
2022-09-15T07:26:08.390Z,975.97
2022-09-15T07:27:08.385Z,975.97
2022-09-15T07:28:08.344Z,975.97
2022-09-15T07:29:08.376Z,975.97
2022-09-15T07:30:08.373Z,975.99
2022-09-15T07:31:08.386Z,975.99
2022-09-15T07:32:08.444Z,976.01
2022-09-15T07:33:08.308Z,976.01
2022-09-15T07:34:08.316Z,976.00
2022-09-15T07:35:08.363Z,976.00
2022-09-15T07:36:08.273Z,976.02
2022-09-15T07:37:08.271Z,976.03
2022-09-15T07:38:08.258Z,976.04
2022-09-15T07:39:08.245Z,976.03
2022-09-15T07:40:08.283Z,976.03
2022-09-15T07:41:08.302Z,976.04
2022-09-15T07:42:08.235Z,976.05
2022-09-15T07:43:08.211Z,976.10
2022-09-15T07:44:08.189Z,976.12
2022-09-15T07:45:08.166Z,976.13
2022-09-15T07:46:08.197Z,976.13
2022-09-15T07:47:08.176Z,976.14
2022-09-15T07:48:08.166Z,976.14
2022-09-15T07:49:08.168Z,976.13
2022-09-15T07:50:08.147Z,976.14
2022-09-15T07:51:08.099Z,976.13
2022-09-15T07:52:08.102Z,976.14
2022-09-15T07:53:08.142Z,976.17
2022-09-15T07:54:08.071Z,976.18
2022-09-15T07:55:08.077Z,976.20
2022-09-15T07:56:08.059Z,976.21
2022-09-15T07:57:08.088Z,976.23
2022-09-15T07:58:08.071Z,976.24
2022-09-15T07:59:08.064Z,976.25
2022-09-15T08:00:08.029Z,976.24
2022-09-15T08:01:08.117Z,976.24
2022-09-15T08:02:08.071Z,976.24
2022-09-15T08:03:07.981Z,976.25
2022-09-15T08:04:07.992Z,976.27
2022-09-15T08:05:08.014Z,976.28
2022-09-15T08:06:07.947Z,976.26
2022-09-15T08:07:07.936Z,976.25
2022-09-15T08:08:07.928Z,976.26
2022-09-15T08:09:07.944Z,976.26
2022-09-15T08:10:07.900Z,976.27
2022-09-15T08:11:07.898Z,976.28
2022-09-15T08:12:07.891Z,976.28
2022-09-15T08:13:07.874Z,976.28
2022-09-15T08:14:07.881Z,976.28
2022-09-15T08:15:07.867Z,976.30
2022-09-15T08:16:07.969Z,976.33
2022-09-15T08:17:11.365Z,976.35
2022-09-15T08:18:07.863Z,976.38
2022-09-15T08:19:07.839Z,976.40
2022-09-15T08:20:07.841Z,976.42
2022-09-15T08:21:07.821Z,976.43
2022-09-15T08:22:07.822Z,976.44
2022-09-15T08:23:07.785Z,976.44
2022-09-15T08:24:07.765Z,976.43
2022-09-15T08:25:07.784Z,976.44
2022-09-15T08:26:11.834Z,976.44
2022-09-15T08:27:07.766Z,976.42
2022-09-15T08:28:07.759Z,976.41
2022-09-15T08:29:07.746Z,976.39
2022-09-15T08:30:07.879Z,976.39
2022-09-15T08:31:07.782Z,976.41
2022-09-15T08:32:07.679Z,976.42
2022-09-15T08:33:07.691Z,976.43
2022-09-15T08:34:07.693Z,976.44
2022-09-15T08:35:07.664Z,976.42
2022-09-15T08:36:07.636Z,976.42
2022-09-15T08:37:07.619Z,976.42
2022-09-15T08:38:07.612Z,976.41
2022-09-15T08:39:07.628Z,976.41
2022-09-15T08:40:07.649Z,976.43
2022-09-15T08:41:07.588Z,976.46
2022-09-15T08:42:07.568Z,976.49
2022-09-15T08:43:07.555Z,976.50
2022-09-15T08:44:07.554Z,976.52
2022-09-15T08:45:07.558Z,976.53
2022-09-15T08:46:07.576Z,976.54
2022-09-15T08:47:07.515Z,976.55
2022-09-15T08:48:07.551Z,976.57
2022-09-15T08:49:07.549Z,976.58
2022-09-15T08:50:07.480Z,976.59
2022-09-15T08:51:07.507Z,976.60
2022-09-15T08:52:07.468Z,976.60
2022-09-15T08:53:07.441Z,976.62
2022-09-15T08:54:07.436Z,976.63
2022-09-15T08:55:07.444Z,976.64
2022-09-15T08:56:10.001Z,976.66
2022-09-15T08:57:07.402Z,976.65
2022-09-15T08:58:07.406Z,976.64
2022-09-15T08:59:07.376Z,976.62
2022-09-15T09:00:07.368Z,976.62
2022-09-15T09:01:07.373Z,976.64
2022-09-15T09:02:07.403Z,976.64
2022-09-15T09:03:07.447Z,976.64
2022-09-15T09:04:07.328Z,976.65
2022-09-15T09:05:07.320Z,976.67
2022-09-15T09:06:07.315Z,976.68
2022-09-15T09:07:07.311Z,976.68
2022-09-15T09:08:07.291Z,976.68
2022-09-15T09:09:07.277Z,976.73
2022-09-15T09:10:07.265Z,976.73
2022-09-15T09:11:07.253Z,976.75
2022-09-15T09:12:07.275Z,976.74
2022-09-15T09:13:07.269Z,976.72
2022-09-15T09:14:07.230Z,976.73
2022-09-15T09:15:07.212Z,976.74
2022-09-15T09:16:07.344Z,976.76
2022-09-15T09:17:07.186Z,976.79
2022-09-15T09:18:07.206Z,976.81
2022-09-15T09:19:07.169Z,976.83
2022-09-15T09:20:07.169Z,976.84
2022-09-15T09:21:07.244Z,976.84
2022-09-15T09:22:07.144Z,976.87
2022-09-15T09:23:07.134Z,976.85
2022-09-15T09:24:07.148Z,976.84
2022-09-15T09:25:25.789Z,976.88
2022-09-15T09:26:10.466Z,976.88
2022-09-15T09:27:07.089Z,976.90
2022-09-15T09:28:07.098Z,976.91
2022-09-15T09:29:07.073Z,976.91
2022-09-15T09:30:07.055Z,976.92
2022-09-15T09:31:07.181Z,976.95
2022-09-15T09:32:07.037Z,976.94
2022-09-15T09:33:07.021Z,976.93
2022-09-15T09:34:07.039Z,976.92
2022-09-15T09:35:07.003Z,976.89
2022-09-15T09:36:06.990Z,976.90
2022-09-15T09:37:06.978Z,976.84
2022-09-15T09:38:06.962Z,976.84
2022-09-15T09:39:06.948Z,976.84
2022-09-15T09:40:07.165Z,976.85
2022-09-15T09:41:06.951Z,976.85
2022-09-15T09:42:06.945Z,976.86
2022-09-15T09:43:06.912Z,976.83
2022-09-15T09:44:06.900Z,976.82
2022-09-15T09:45:06.911Z,976.81
2022-09-15T09:46:06.930Z,976.80
2022-09-15T09:47:06.871Z,976.79
2022-09-15T09:48:06.888Z,976.80
2022-09-15T09:49:06.863Z,976.79
2022-09-15T09:50:06.853Z,976.80
2022-09-15T09:51:06.837Z,976.79
2022-09-15T09:52:06.839Z,976.80
2022-09-15T09:53:06.808Z,976.80
2022-09-15T09:54:06.801Z,976.82
2022-09-15T09:55:06.790Z,976.82
2022-09-15T09:56:06.805Z,976.79
2022-09-15T09:57:06.776Z,976.79
2022-09-15T09:58:06.780Z,976.77
2022-09-15T09:59:06.758Z,976.76
2022-09-15T10:00:06.762Z,976.78
2022-09-15T10:01:06.790Z,976.77
2022-09-15T10:02:06.728Z,976.78
2022-09-15T10:03:06.702Z,976.79
2022-09-15T10:04:06.711Z,976.81
2022-09-15T10:05:06.768Z,976.84
2022-09-15T10:06:06.669Z,976.81
2022-09-15T10:07:06.652Z,976.80
2022-09-15T10:08:06.672Z,976.81
2022-09-15T10:09:06.661Z,976.81
2022-09-15T10:10:06.640Z,976.79
2022-09-15T10:11:06.621Z,976.81
2022-09-15T10:12:06.610Z,976.80
2022-09-15T10:13:06.595Z,976.80
2022-09-15T10:14:06.580Z,976.81
2022-09-15T10:15:06.607Z,976.80
2022-09-15T10:16:06.558Z,976.82
2022-09-15T10:17:06.599Z,976.87
2022-09-15T10:18:06.546Z,976.83
2022-09-15T10:19:06.524Z,976.84
2022-09-15T10:20:06.533Z,976.86
2022-09-15T10:21:06.524Z,976.86
2022-09-15T10:22:06.501Z,976.86
2022-09-15T10:23:06.521Z,976.90
2022-09-15T10:24:06.471Z,976.96
2022-09-15T10:25:06.503Z,976.94
2022-09-15T10:26:06.469Z,976.93
2022-09-15T10:27:06.442Z,976.95
2022-09-15T10:28:06.453Z,976.96
2022-09-15T10:29:06.433Z,976.92
2022-09-15T10:30:06.432Z,976.91
2022-09-15T10:31:06.403Z,976.88
2022-09-15T10:32:06.548Z,976.87
2022-09-15T10:33:06.389Z,976.90
2022-09-15T10:34:06.366Z,976.90
2022-09-15T10:35:06.349Z,976.90
2022-09-15T10:36:06.344Z,976.89
2022-09-15T10:37:06.348Z,976.91
2022-09-15T10:38:06.322Z,976.92
2022-09-15T10:39:06.315Z,976.92
2022-09-15T10:40:06.440Z,976.94
2022-09-15T10:41:06.287Z,976.94
2022-09-15T10:42:06.279Z,976.95
2022-09-15T10:43:06.284Z,976.93
2022-09-15T10:44:06.274Z,976.93
2022-09-15T10:45:06.255Z,976.93
2022-09-15T10:46:06.332Z,976.93
2022-09-15T10:47:06.231Z,976.95
2022-09-15T10:48:06.211Z,976.94
2022-09-15T10:49:06.217Z,976.93
2022-09-15T10:50:06.239Z,976.92
2022-09-15T10:51:06.179Z,976.94
2022-09-15T10:52:06.170Z,976.94
2022-09-15T10:53:06.160Z,976.94
2022-09-15T10:54:06.163Z,976.93
2022-09-15T10:55:06.140Z,976.94
2022-09-15T10:56:06.143Z,976.93
2022-09-15T10:57:06.131Z,976.92
2022-09-15T10:58:06.104Z,976.93
2022-09-15T10:59:06.101Z,976.89
2022-09-15T11:00:06.098Z,976.89
2022-09-15T11:01:06.180Z,976.88
2022-09-15T11:02:06.134Z,976.88
2022-09-15T11:03:06.051Z,976.85
2022-09-15T11:04:06.045Z,976.84
2022-09-15T11:05:06.033Z,976.83
2022-09-15T11:06:06.014Z,976.83
2022-09-15T11:07:06.034Z,976.84
2022-09-15T11:08:05.993Z,976.86
2022-09-15T11:09:05.992Z,976.85
2022-09-15T11:10:06.588Z,976.84
2022-09-15T11:11:05.966Z,976.82
2022-09-15T11:12:05.956Z,976.83
2022-09-15T11:13:05.964Z,976.86
2022-09-15T11:14:05.929Z,976.87
2022-09-15T11:15:05.935Z,976.87
2022-09-15T11:16:05.940Z,976.85
2022-09-15T11:17:05.907Z,976.83
2022-09-15T11:18:05.925Z,976.84
2022-09-15T11:19:05.895Z,976.81
2022-09-15T11:20:05.878Z,976.82
2022-09-15T11:21:05.871Z,976.79
2022-09-15T11:22:05.844Z,976.80
2022-09-15T11:23:05.849Z,976.82
2022-09-15T11:24:05.851Z,976.83
2022-09-15T11:25:05.818Z,976.85
2022-09-15T11:26:05.815Z,976.85
2022-09-15T11:27:05.798Z,976.86
2022-09-15T11:28:05.786Z,976.88
2022-09-15T11:29:05.794Z,976.87
2022-09-15T11:30:05.812Z,976.89
2022-09-15T11:31:05.823Z,976.89
2022-09-15T11:32:05.755Z,976.89
2022-09-15T11:33:05.733Z,976.91
2022-09-15T11:34:05.739Z,976.88
2022-09-15T11:35:05.745Z,976.97
2022-09-15T11:36:05.706Z,976.87
2022-09-15T11:37:05.685Z,976.89
2022-09-15T11:38:07.261Z,976.91
2022-09-15T11:39:05.667Z,976.93
2022-09-15T11:40:05.735Z,976.91
2022-09-15T11:41:05.649Z,976.90
2022-09-15T11:42:05.634Z,976.89
2022-09-15T11:43:05.622Z,976.87
2022-09-15T11:44:05.620Z,976.88
2022-09-15T11:45:05.600Z,976.85
2022-09-15T11:46:05.642Z,976.88
2022-09-15T11:47:05.580Z,976.85
2022-09-15T11:48:05.577Z,976.87
2022-09-15T11:49:05.559Z,976.87
2022-09-15T11:50:05.549Z,976.87
2022-09-15T11:51:05.559Z,976.86
2022-09-15T11:52:05.532Z,976.88
2022-09-15T11:53:05.520Z,976.90
2022-09-15T11:54:05.504Z,976.92
2022-09-15T11:55:05.497Z,976.91
2022-09-15T11:56:05.484Z,976.90
2022-09-15T11:57:05.505Z,976.90
2022-09-15T11:58:05.463Z,976.92
2022-09-15T11:59:05.467Z,976.98
2022-09-15T12:00:05.451Z,977.02
2022-09-15T12:01:05.434Z,977.00
2022-09-15T12:02:05.524Z,976.93
2022-09-15T12:03:05.463Z,977.03
2022-09-15T12:04:05.402Z,977.02
2022-09-15T12:05:05.391Z,976.97
2022-09-15T12:06:05.379Z,977.05
2022-09-15T12:07:05.370Z,977.07
2022-09-15T12:08:05.383Z,977.07
2022-09-15T12:09:05.379Z,977.06
2022-09-15T12:10:05.334Z,977.04
2022-09-15T12:11:05.330Z,977.04
2022-09-15T12:12:05.314Z,977.07
2022-09-15T12:13:05.308Z,977.09
2022-09-15T12:14:05.301Z,977.10
2022-09-15T12:15:05.307Z,977.10
2022-09-15T12:16:06.039Z,977.10
2022-09-15T12:17:05.262Z,977.11
2022-09-15T12:18:06.631Z,977.09
2022-09-15T12:19:05.278Z,977.08
2022-09-15T12:20:05.227Z,977.09
2022-09-15T12:21:05.333Z,977.09
2022-09-15T12:22:05.212Z,977.07
2022-09-15T12:23:05.207Z,977.09
2022-09-15T12:24:05.188Z,977.09
2022-09-15T12:25:05.180Z,977.09
2022-09-15T12:26:05.170Z,977.09
2022-09-15T12:27:05.182Z,977.08
2022-09-15T12:28:05.141Z,977.09